createdAt,value
2022-08-25T00:01:58.036Z,15.00
2022-08-25T00:04:25.923Z,15.00
2022-08-25T00:06:53.543Z,14.90
2022-08-25T00:09:23.287Z,14.90
2022-08-25T00:11:51.205Z,14.80
2022-08-25T00:14:24.952Z,14.90
2022-08-25T00:16:52.012Z,14.90
2022-08-25T00:19:26.349Z,15.00
2022-08-25T00:21:53.590Z,15.00
2022-08-25T00:27:02.273Z,14.80
2022-08-25T00:29:32.594Z,14.80
2022-08-25T00:32:00.199Z,14.80
2022-08-25T00:34:34.319Z,14.80
2022-08-25T00:37:02.776Z,14.60
2022-08-25T00:39:30.439Z,14.50
2022-08-25T00:41:58.313Z,14.40
2022-08-25T00:44:27.331Z,14.50
2022-08-25T00:46:58.692Z,14.50
2022-08-25T00:49:46.392Z,14.60
2022-08-25T00:52:51.032Z,14.60
2022-08-25T00:55:23.406Z,14.70
2022-08-25T00:57:56.058Z,14.70
2022-08-25T01:00:34.161Z,14.80
2022-08-25T01:03:01.627Z,14.80
2022-08-25T01:05:29.442Z,14.80
2022-08-25T01:07:58.807Z,14.80
2022-08-25T01:10:28.176Z,14.80
2022-08-25T01:13:00.730Z,14.80
2022-08-25T01:15:28.493Z,14.50
2022-08-25T01:17:57.278Z,14.30
2022-08-25T01:20:29.706Z,14.20
2022-08-25T01:22:57.444Z,14.20
2022-08-25T01:25:56.650Z,14.10
2022-08-25T01:28:24.239Z,14.00
2022-08-25T01:30:52.423Z,14.00
2022-08-25T01:33:19.658Z,14.10
2022-08-25T01:35:46.947Z,14.10
2022-08-25T01:38:14.189Z,14.00
2022-08-25T01:40:42.841Z,14.00
2022-08-25T01:43:16.051Z,14.00
2022-08-25T01:45:46.276Z,14.10
2022-08-25T01:48:15.199Z,14.20
2022-08-25T01:50:43.895Z,14.20
2022-08-25T01:53:33.463Z,14.20
2022-08-25T01:56:10.126Z,14.20
2022-08-25T01:58:39.461Z,14.20
2022-08-25T02:01:09.287Z,14.20
2022-08-25T02:03:42.235Z,14.20
2022-08-25T02:06:11.922Z,14.20
2022-08-25T02:08:38.818Z,14.20
2022-08-25T02:11:05.740Z,14.10
2022-08-25T02:13:32.654Z,14.00
2022-08-25T02:16:00.905Z,13.90
2022-08-25T02:18:27.761Z,13.90
2022-08-25T02:20:54.583Z,14.00
2022-08-25T02:23:21.471Z,13.90
2022-08-25T02:25:48.297Z,14.10
2022-08-25T02:28:15.255Z,14.10
2022-08-25T02:30:43.553Z,13.90
2022-08-25T02:33:10.559Z,13.90
2022-08-25T02:35:38.174Z,13.80
2022-08-25T02:38:05.723Z,13.80
2022-08-25T02:40:32.665Z,13.90
2022-08-25T02:42:59.467Z,13.80
2022-08-25T02:45:26.306Z,13.70
2022-08-25T02:47:53.513Z,13.80
2022-08-25T02:50:20.645Z,13.70
2022-08-25T02:52:50.445Z,13.70
2022-08-25T02:55:18.150Z,13.80
2022-08-25T02:57:45.021Z,13.80
2022-08-25T03:00:14.226Z,13.70
2022-08-25T03:02:41.446Z,13.70
2022-08-25T03:05:10.082Z,13.70
2022-08-25T03:07:38.486Z,13.80
2022-08-25T03:10:15.939Z,13.80
2022-08-25T03:12:42.955Z,13.60
2022-08-25T03:15:13.157Z,13.60
2022-08-25T03:17:40.831Z,13.70
2022-08-25T03:20:11.695Z,13.70
2022-08-25T03:22:39.161Z,13.70
2022-08-25T03:25:25.256Z,13.70
2022-08-25T03:27:52.350Z,13.80
2022-08-25T03:30:19.353Z,13.70
2022-08-25T03:32:46.359Z,13.70
2022-08-25T03:35:13.887Z,13.60
2022-08-25T03:37:42.025Z,13.60
2022-08-25T03:40:15.381Z,13.50
2022-08-25T03:42:45.374Z,13.40
2022-08-25T03:45:14.601Z,13.40
2022-08-25T03:47:42.128Z,13.40
2022-08-25T03:50:11.235Z,13.30
2022-08-25T03:52:42.415Z,13.30
2022-08-25T03:55:12.058Z,13.30
2022-08-25T03:57:39.115Z,13.40
2022-08-25T04:00:08.056Z,13.50
2022-08-25T04:02:34.875Z,13.50
2022-08-25T04:05:02.099Z,13.60
2022-08-25T04:07:29.778Z,13.60
2022-08-25T04:09:56.558Z,13.50
2022-08-25T04:12:23.731Z,13.50
2022-08-25T04:14:50.806Z,13.60
2022-08-25T04:17:18.583Z,13.60
2022-08-25T04:19:45.558Z,13.60
2022-08-25T04:22:13.243Z,13.60
2022-08-25T04:24:40.575Z,13.60
2022-08-25T04:27:07.493Z,13.70
2022-08-25T04:29:34.845Z,13.60
2022-08-25T04:32:01.626Z,13.70
2022-08-25T04:34:30.420Z,13.70
2022-08-25T04:37:02.927Z,13.60
2022-08-25T04:39:30.530Z,13.50
2022-08-25T04:41:57.774Z,13.50
2022-08-25T04:44:25.349Z,13.50
2022-08-25T04:46:52.189Z,13.60
2022-08-25T04:49:19.222Z,13.60
2022-08-25T04:51:46.027Z,13.70
2022-08-25T04:54:21.520Z,13.70
2022-08-25T04:56:50.089Z,13.80
2022-08-25T04:59:21.209Z,13.80
2022-08-25T05:01:50.201Z,13.90
2022-08-25T05:04:27.559Z,13.90
2022-08-25T05:06:56.705Z,13.80
2022-08-25T05:09:23.707Z,13.80
2022-08-25T05:11:52.313Z,13.90
2022-08-25T05:14:22.178Z,13.90
2022-08-25T05:16:52.658Z,14.00
2022-08-25T05:19:19.791Z,14.10
2022-08-25T05:21:46.600Z,14.20
2022-08-25T05:24:13.351Z,14.30
2022-08-25T05:26:40.176Z,14.50
2022-08-25T05:29:07.072Z,14.60
2022-08-25T05:31:39.550Z,14.70
2022-08-25T05:34:08.844Z,14.80
2022-08-25T05:36:35.840Z,15.00
2022-08-25T05:39:04.180Z,15.10
2022-08-25T05:41:31.577Z,15.20
2022-08-25T05:43:58.956Z,15.30
2022-08-25T05:46:25.863Z,15.40
2022-08-25T05:48:54.349Z,15.50
2022-08-25T05:51:21.391Z,15.50
2022-08-25T05:53:50.497Z,15.50
2022-08-25T05:56:18.509Z,15.60
2022-08-25T05:58:46.018Z,15.60
2022-08-25T06:01:39.206Z,15.80
2022-08-25T06:04:06.412Z,15.90
2022-08-25T06:06:33.407Z,16.10
2022-08-25T06:09:02.667Z,16.20
2022-08-25T06:11:29.839Z,16.30
2022-08-25T06:13:56.631Z,16.40
2022-08-25T06:16:23.414Z,16.40
2022-08-25T06:18:50.606Z,16.60
2022-08-25T06:21:18.558Z,16.60
2022-08-25T06:23:45.311Z,16.70
2022-08-25T06:26:20.725Z,16.80
2022-08-25T06:28:52.458Z,16.80
2022-08-25T06:31:22.272Z,17.00
2022-08-25T06:33:50.060Z,17.30
2022-08-25T06:36:19.115Z,17.40
2022-08-25T06:38:46.762Z,17.50
2022-08-25T06:41:13.994Z,17.80
2022-08-25T06:43:48.077Z,18.00
2022-08-25T06:46:19.918Z,18.20
2022-08-25T06:48:47.415Z,18.40
2022-08-25T06:51:17.541Z,18.50
2022-08-25T06:53:47.643Z,18.70
2022-08-25T06:56:15.486Z,18.80
2022-08-25T06:58:42.477Z,18.90
2022-08-25T07:01:19.583Z,19.10
2022-08-25T07:03:47.213Z,19.10
2022-08-25T07:06:15.275Z,19.30
2022-08-25T07:08:46.916Z,19.30
2022-08-25T07:11:16.664Z,19.30
2022-08-25T07:13:45.802Z,19.50
2022-08-25T07:16:15.528Z,19.70
2022-08-25T07:18:43.062Z,19.80
2022-08-25T07:21:12.673Z,19.80
2022-08-25T07:23:40.783Z,19.80
2022-08-25T07:26:15.708Z,19.80
2022-08-25T07:28:49.009Z,19.80
2022-08-25T07:31:18.149Z,19.90
2022-08-25T07:34:03.672Z,20.00
2022-08-25T07:36:31.974Z,20.20
2022-08-25T07:38:59.847Z,20.30
2022-08-25T07:41:27.130Z,20.30
2022-08-25T07:43:54.177Z,20.40
2022-08-25T07:46:21.059Z,20.50
2022-08-25T07:48:53.193Z,20.70
2022-08-25T07:51:20.387Z,20.80
2022-08-25T07:53:47.147Z,20.70
2022-08-25T07:56:16.206Z,20.80
2022-08-25T07:58:44.024Z,20.80
2022-08-25T08:01:17.401Z,20.90
2022-08-25T08:03:50.435Z,20.90
2022-08-25T08:06:21.171Z,20.90
2022-08-25T08:08:50.314Z,20.90
2022-08-25T08:11:23.050Z,20.90
2022-08-25T08:13:51.665Z,20.80
2022-08-25T08:16:20.015Z,20.90
2022-08-25T08:18:47.717Z,20.90
2022-08-25T08:21:19.305Z,21.00
2022-08-25T08:23:48.438Z,21.10
2022-08-25T08:26:16.987Z,21.40
2022-08-25T08:28:44.357Z,21.80
2022-08-25T08:31:21.529Z,22.00
2022-08-25T08:33:50.063Z,22.30
2022-08-25T08:36:17.380Z,22.50
2022-08-25T08:38:44.841Z,22.80
2022-08-25T08:42:11.286Z,22.80
2022-08-25T08:44:43.165Z,23.10
2022-08-25T08:47:36.129Z,23.30
2022-08-25T08:50:28.079Z,23.60
2022-08-25T08:53:24.716Z,23.90
2022-08-25T08:55:57.998Z,23.90
2022-08-25T08:58:45.991Z,23.80
2022-08-25T09:01:24.440Z,23.80
2022-08-25T09:03:58.727Z,23.60
2022-08-25T09:06:46.666Z,23.60
2022-08-25T09:09:26.476Z,23.60
2022-08-25T09:12:19.759Z,23.80
2022-08-25T09:15:00.512Z,24.40
2022-08-25T09:18:13.160Z,24.80
2022-08-25T09:21:04.121Z,25.20
2022-08-25T09:23:58.722Z,25.80
2022-08-25T09:26:38.289Z,26.20
2022-08-25T09:29:29.395Z,26.40
2022-08-25T09:31:59.470Z,26.50
2022-08-25T09:34:33.432Z,26.30
2022-08-25T09:37:00.572Z,26.30
2022-08-25T09:39:28.014Z,26.40
2022-08-25T09:42:00.300Z,26.50
2022-08-25T09:44:33.604Z,26.70
2022-08-25T09:47:21.814Z,26.80
2022-08-25T09:50:05.221Z,26.60
2022-08-25T09:52:41.306Z,26.10
2022-08-25T09:55:08.685Z,26.00
2022-08-25T09:57:42.976Z,25.90
2022-08-25T10:00:22.224Z,26.00
2022-08-25T10:03:07.993Z,26.10
2022-08-25T10:05:43.133Z,26.30
2022-08-25T10:08:14.676Z,26.40
2022-08-25T10:10:54.952Z,26.30
2022-08-25T10:13:32.255Z,26.20
2022-08-25T10:16:20.065Z,26.20
2022-08-25T10:19:06.637Z,26.40
2022-08-25T10:21:36.436Z,26.30
2022-08-25T10:24:06.046Z,26.40
2022-08-25T10:26:55.627Z,26.20
2022-08-25T10:29:28.166Z,26.20
2022-08-25T10:32:12.005Z,26.60
2022-08-25T10:34:45.815Z,27.00
2022-08-25T10:37:45.633Z,27.40
2022-08-25T10:40:16.695Z,27.70
2022-08-25T10:43:08.435Z,27.40
2022-08-25T10:45:42.951Z,27.30
2022-08-25T10:48:24.958Z,27.30
2022-08-25T10:51:25.406Z,27.70
2022-08-25T10:54:00.343Z,28.10
2022-08-25T10:56:32.086Z,28.20
2022-08-25T10:59:55.967Z,28.40
2022-08-25T11:02:50.451Z,28.60
2022-08-25T11:05:32.490Z,28.40
2022-08-25T11:08:25.669Z,27.90
2022-08-25T11:11:21.653Z,27.90
2022-08-25T11:13:53.580Z,27.60
2022-08-25T11:16:29.093Z,27.60
2022-08-25T11:19:26.834Z,27.50
2022-08-25T11:22:15.254Z,27.40
2022-08-25T11:25:05.558Z,27.50
2022-08-25T11:27:58.171Z,27.30
2022-08-25T11:30:25.822Z,27.10
2022-08-25T11:32:54.447Z,27.10
2022-08-25T11:35:43.978Z,27.10
2022-08-25T11:38:55.156Z,27.00
2022-08-25T11:42:06.653Z,26.90
2022-08-25T11:44:59.142Z,26.90
2022-08-25T11:47:25.859Z,26.90
2022-08-25T11:50:21.274Z,26.90
2022-08-25T11:52:54.001Z,26.90
2022-08-25T11:55:30.007Z,27.00
2022-08-25T11:58:39.210Z,27.00
2022-08-25T12:01:45.893Z,27.10
2022-08-25T12:04:30.857Z,27.10
2022-08-25T12:07:07.144Z,27.10
2022-08-25T12:09:54.915Z,27.30
2022-08-25T12:12:32.230Z,27.60
2022-08-25T12:15:37.327Z,28.40
2022-08-25T12:18:40.205Z,29.10
2022-08-25T12:21:15.361Z,29.90
2022-08-25T12:24:04.519Z,30.50
2022-08-25T12:26:55.100Z,30.70
2022-08-25T12:30:08.134Z,30.60
2022-08-25T12:32:59.715Z,30.30
2022-08-25T12:35:50.269Z,30.50
2022-08-25T12:38:28.558Z,30.90
2022-08-25T12:41:07.149Z,31.70
2022-08-25T12:43:37.499Z,32.00
2022-08-25T12:46:20.127Z,32.80
2022-08-25T12:49:00.843Z,32.70
2022-08-25T12:51:38.670Z,31.90
2022-08-25T12:54:25.895Z,31.20
2022-08-25T12:56:58.504Z,30.40
2022-08-25T12:59:30.983Z,29.90
2022-08-25T13:02:23.488Z,29.40
2022-08-25T13:05:14.851Z,29.10
2022-08-25T13:08:01.198Z,29.40
2022-08-25T13:10:52.896Z,29.30
2022-08-25T13:13:29.678Z,29.00
2022-08-25T13:16:09.887Z,30.10
2022-08-25T13:18:39.805Z,30.80
2022-08-25T13:21:42.217Z,31.80
2022-08-25T13:24:19.698Z,33.00
2022-08-25T13:26:55.898Z,33.60
2022-08-25T13:29:29.763Z,33.40
2022-08-25T13:32:09.489Z,33.60
2022-08-25T13:34:42.509Z,34.50
2022-08-25T13:37:29.734Z,35.00
2022-08-25T13:40:15.636Z,34.60
2022-08-25T13:42:54.024Z,34.80
2022-08-25T13:45:24.739Z,35.60
2022-08-25T13:47:55.751Z,35.70
2022-08-25T13:50:26.331Z,34.70
2022-08-25T13:53:16.886Z,33.50
2022-08-25T13:55:52.259Z,32.30
2022-08-25T13:58:39.228Z,31.80
2022-08-25T14:01:50.331Z,31.80
2022-08-25T14:04:51.741Z,31.40
2022-08-25T14:07:22.438Z,30.80
2022-08-25T14:10:01.267Z,30.40
2022-08-25T14:12:45.412Z,30.20
2022-08-25T14:15:29.331Z,30.60
2022-08-25T14:18:04.972Z,32.10
2022-08-25T14:20:34.069Z,34.00
2022-08-25T14:23:09.983Z,34.90
2022-08-25T14:25:37.290Z,35.80
2022-08-25T14:28:14.090Z,35.40
2022-08-25T14:30:46.601Z,34.20
2022-08-25T14:33:16.113Z,32.60
2022-08-25T14:35:46.239Z,31.70
2022-08-25T14:38:15.276Z,31.10
2022-08-25T14:40:44.575Z,30.40
2022-08-25T14:43:12.387Z,30.00
2022-08-25T14:45:42.500Z,29.40
2022-08-25T14:48:14.341Z,29.00
2022-08-25T14:50:42.215Z,28.80
2022-08-25T14:53:11.239Z,28.70
2022-08-25T14:55:38.792Z,28.50
2022-08-25T14:58:07.408Z,28.50
2022-08-25T15:00:40.044Z,28.60
2022-08-25T15:03:07.739Z,29.30
2022-08-25T15:05:34.762Z,30.40
2022-08-25T15:08:20.243Z,31.10
2022-08-25T15:10:47.625Z,31.10
2022-08-25T15:13:15.045Z,30.80
2022-08-25T15:15:52.879Z,30.30
2022-08-25T15:18:20.901Z,30.20
2022-08-25T15:20:50.158Z,29.80
2022-08-25T15:23:18.476Z,29.50
2022-08-25T15:25:47.573Z,28.90
2022-08-25T15:28:17.403Z,28.70
2022-08-25T15:30:45.839Z,28.50
2022-08-25T15:33:16.088Z,28.40
2022-08-25T15:35:43.535Z,28.20
2022-08-25T15:38:11.975Z,28.00
2022-08-25T15:40:39.698Z,28.00
2022-08-25T15:43:06.947Z,28.20
2022-08-25T15:45:35.959Z,28.40
2022-08-25T15:48:04.323Z,28.50
2022-08-25T15:50:33.814Z,28.70
2022-08-25T15:53:00.791Z,28.90
2022-08-25T15:55:27.856Z,29.40
2022-08-25T15:57:55.675Z,29.40
2022-08-25T16:00:22.758Z,29.30
2022-08-25T16:02:50.463Z,29.30
2022-08-25T16:05:17.342Z,29.30
2022-08-25T16:07:46.025Z,29.50
2022-08-25T16:10:13.654Z,29.90
2022-08-25T16:12:42.610Z,29.80
2022-08-25T16:15:12.268Z,29.80
2022-08-25T16:17:40.557Z,29.90
2022-08-25T16:20:13.793Z,29.80
2022-08-25T16:22:41.346Z,29.60
2022-08-25T16:25:08.894Z,29.40
2022-08-25T16:27:38.882Z,28.90
2022-08-25T16:30:08.433Z,28.70
2022-08-25T16:32:35.778Z,28.50
2022-08-25T16:35:05.814Z,28.40
2022-08-25T16:37:37.884Z,28.30
2022-08-25T16:40:06.219Z,28.20
2022-08-25T16:42:33.367Z,28.30
2022-08-25T16:45:00.741Z,28.30
2022-08-25T16:47:27.523Z,28.30
2022-08-25T16:49:55.494Z,28.20
2022-08-25T16:52:40.865Z,28.10
2022-08-25T16:55:14.243Z,28.00
2022-08-25T16:57:46.030Z,27.80
2022-08-25T17:00:18.560Z,27.60
2022-08-25T17:02:46.230Z,27.40
2022-08-25T17:05:14.591Z,27.30
2022-08-25T17:07:41.729Z,27.20
2022-08-25T17:10:12.872Z,27.00
2022-08-25T17:12:40.459Z,26.90
2022-08-25T17:15:07.807Z,26.80
2022-08-25T17:17:36.416Z,26.70
2022-08-25T17:20:04.840Z,26.60
2022-08-25T17:22:32.000Z,26.50
2022-08-25T17:24:59.409Z,26.40
2022-08-25T17:27:28.913Z,26.20
2022-08-25T17:29:57.971Z,26.10
2022-08-25T17:32:28.860Z,25.90
2022-08-25T17:34:57.974Z,25.90
2022-08-25T17:37:25.668Z,25.80
2022-08-25T17:40:02.796Z,25.60
2022-08-25T17:42:31.795Z,25.50
2022-08-25T17:44:58.637Z,25.40
2022-08-25T17:47:27.379Z,25.30
2022-08-25T17:49:54.563Z,25.20
2022-08-25T17:52:25.497Z,25.10
2022-08-25T17:54:52.779Z,25.00
2022-08-25T17:57:19.814Z,24.80
2022-08-25T17:59:48.036Z,24.70
2022-08-25T18:02:14.892Z,24.60
2022-08-25T18:04:41.855Z,24.40
2022-08-25T18:07:08.654Z,24.30
2022-08-25T18:09:35.436Z,24.10
2022-08-25T18:12:02.370Z,23.90
2022-08-25T18:14:30.244Z,23.80
2022-08-25T18:16:57.062Z,23.60
2022-08-25T18:19:23.821Z,23.40
2022-08-25T18:21:52.466Z,23.30
2022-08-25T18:24:19.514Z,23.30
2022-08-25T18:26:46.871Z,23.20
2022-08-25T18:29:14.019Z,23.10
2022-08-25T18:31:44.588Z,23.10
2022-08-25T18:34:12.541Z,23.00
2022-08-25T18:36:40.353Z,22.90
2022-08-25T18:39:25.931Z,22.90
2022-08-25T18:41:52.816Z,22.70
2022-08-25T18:44:19.784Z,22.60
2022-08-25T18:46:46.636Z,22.50
2022-08-25T18:49:18.324Z,22.50
2022-08-25T18:51:46.242Z,22.40
2022-08-25T18:54:22.426Z,22.40
2022-08-25T18:56:52.317Z,22.30
2022-08-25T18:59:19.943Z,22.30
2022-08-25T19:01:51.607Z,22.20
2022-08-25T19:04:18.566Z,22.10
2022-08-25T19:06:45.620Z,22.00
2022-08-25T19:09:13.523Z,21.90
2022-08-25T19:11:43.221Z,21.90
2022-08-25T19:14:12.621Z,21.90
2022-08-25T19:16:42.722Z,21.80
2022-08-25T19:19:13.169Z,21.70
2022-08-25T19:21:41.633Z,21.50
2022-08-25T19:24:10.890Z,21.40
2022-08-25T19:26:39.337Z,21.40
2022-08-25T19:29:09.561Z,21.30
2022-08-25T19:31:37.730Z,21.30
2022-08-25T19:34:09.086Z,21.20
2022-08-25T19:36:36.066Z,21.20
2022-08-25T19:39:06.922Z,21.10
2022-08-25T19:41:34.260Z,20.90
2022-08-25T19:44:02.931Z,20.80
2022-08-25T19:46:36.266Z,20.80
2022-08-25T19:49:08.381Z,20.80
2022-08-25T19:51:43.986Z,20.80
2022-08-25T19:54:15.614Z,20.60
2022-08-25T19:56:54.885Z,20.50
2022-08-25T19:59:25.361Z,20.40
2022-08-25T20:01:53.260Z,20.40
2022-08-25T20:04:21.093Z,20.30
2022-08-25T20:06:51.620Z,20.20
2022-08-25T20:09:35.503Z,20.10
2022-08-25T20:12:06.802Z,20.10
2022-08-25T20:14:34.952Z,20.10
2022-08-25T20:17:02.261Z,20.10
2022-08-25T20:19:31.175Z,20.20
2022-08-25T20:21:58.891Z,20.10
2022-08-25T20:24:46.064Z,20.10
2022-08-25T20:27:13.022Z,20.00
2022-08-25T20:29:40.002Z,19.80
2022-08-25T20:32:11.587Z,19.70
2022-08-25T20:34:38.420Z,19.60
2022-08-25T20:37:05.950Z,19.50
2022-08-25T20:39:34.143Z,19.50
2022-08-25T20:42:01.237Z,19.50
2022-08-25T20:44:33.674Z,19.60
2022-08-25T20:47:07.393Z,19.60
2022-08-25T20:49:37.919Z,19.60
2022-08-25T20:52:05.587Z,19.60
2022-08-25T20:54:33.578Z,19.50
2022-08-25T20:57:00.430Z,19.50
2022-08-25T20:59:29.460Z,19.50
2022-08-25T21:01:56.644Z,19.50
2022-08-25T21:04:25.644Z,19.30
2022-08-25T21:06:52.920Z,19.20
2022-08-25T21:09:22.781Z,19.00
2022-08-25T21:11:53.175Z,18.90
2022-08-25T21:14:21.589Z,18.80
2022-08-25T21:16:49.370Z,18.80
2022-08-25T21:19:33.960Z,18.80
2022-08-25T21:22:00.777Z,18.80
2022-08-25T21:24:28.457Z,18.80
2022-08-25T21:26:58.064Z,18.80
2022-08-25T21:29:28.501Z,18.80
2022-08-25T21:31:57.765Z,18.80
2022-08-25T21:34:25.059Z,18.80
2022-08-25T21:36:57.619Z,18.80
2022-08-25T21:39:26.217Z,18.60
2022-08-25T21:41:53.749Z,18.60
2022-08-25T21:44:20.821Z,18.70
2022-08-25T21:46:54.391Z,18.70
2022-08-25T21:49:23.195Z,18.70
2022-08-25T21:52:01.045Z,18.70
2022-08-25T21:54:29.610Z,18.60
2022-08-25T21:57:00.158Z,18.60
2022-08-25T21:59:33.432Z,18.60
2022-08-25T22:02:05.645Z,18.60
2022-08-25T22:04:33.203Z,18.60
2022-08-25T22:07:01.063Z,18.60
2022-08-25T22:09:29.673Z,18.50
2022-08-25T22:11:56.866Z,18.40
2022-08-25T22:14:26.105Z,18.30
2022-08-25T22:16:54.533Z,18.40
2022-08-25T22:19:22.805Z,18.40
2022-08-25T22:21:50.387Z,18.40
2022-08-25T22:24:18.206Z,18.40
2022-08-25T22:26:47.653Z,18.30
2022-08-25T22:29:25.157Z,18.20
2022-08-25T22:31:57.889Z,18.10
2022-08-25T22:34:32.079Z,18.00
2022-08-25T22:37:00.388Z,18.00
2022-08-25T22:39:27.406Z,18.00
2022-08-25T22:41:54.222Z,18.00
2022-08-25T22:44:25.663Z,18.00
2022-08-25T22:46:53.398Z,18.00
2022-08-25T22:49:20.155Z,18.00
2022-08-25T22:51:47.865Z,17.90
2022-08-25T22:54:15.839Z,17.90
2022-08-25T22:56:42.766Z,17.80
2022-08-25T22:59:12.419Z,17.80
2022-08-25T23:01:39.823Z,17.70
2022-08-25T23:04:07.585Z,17.70
2022-08-25T23:06:34.689Z,17.70
2022-08-25T23:09:05.082Z,17.80
2022-08-25T23:11:31.860Z,17.60
2022-08-25T23:14:05.462Z,17.50
2022-08-25T23:16:33.082Z,17.60
2022-08-25T23:19:00.449Z,17.60
2022-08-25T23:21:46.818Z,17.60
2022-08-25T23:24:26.808Z,17.50
2022-08-25T23:26:59.276Z,17.50
2022-08-25T23:29:27.680Z,17.60
2022-08-25T23:31:55.142Z,17.60
2022-08-25T23:34:22.191Z,17.50
2022-08-25T23:36:49.041Z,17.20
2022-08-25T23:39:16.108Z,17.20
2022-08-25T23:41:42.909Z,17.20
2022-08-25T23:44:11.827Z,17.20
2022-08-25T23:46:45.077Z,17.30
2022-08-25T23:49:12.352Z,17.30
2022-08-25T23:51:40.979Z,17.30
2022-08-25T23:54:11.635Z,17.20
2022-08-25T23:56:44.873Z,17.30
2022-08-25T23:59:20.402Z,17.30
